Time;durP1;ratioP1;P1;durP2;ratioP2;P2;SDS_P1;SDS_P2;PMS_P1;PMS_P2;Temp;Humidity;BMP_temperature;BMP_pressure;BME280_temperature;BME280_humidity;BME280_pressure;Samples;Min_cycle;Max_cycle;Signal;HPM_P1;HPM_P2
2022/10/31 00:00:58;;;;;;;3.42;2.50;;;20.50;64.10;;;;;;6294477;28;20495;-70
2022/10/31 00:03:59;;;;;;;4.32;2.95;;;20.50;64.00;;;;;;6294452;28;20064;-69
2022/10/31 00:07:00;;;;;;;6.15;2.78;;;20.50;64.00;;;;;;6294513;28;20557;-70
2022/10/31 00:10:00;;;;;;;4.97;2.88;;;20.50;64.10;;;;;;6294226;28;20028;-70
2022/10/31 00:13:01;;;;;;;4.40;2.90;;;20.50;64.10;;;;;;6294434;28;20025;-70
2022/10/31 00:16:02;;;;;;;3.78;2.55;;;20.50;64.10;;;;;;6294195;28;20029;-70
2022/10/31 00:19:06;;;;;;;3.90;2.78;;;20.50;64.10;;;;;;6294298;28;20041;-70
2022/10/31 00:22:06;;;;;;;3.95;2.70;;;20.50;64.10;;;;;;6294377;28;20028;-70
2022/10/31 00:25:07;;;;;;;3.28;2.30;;;20.50;64.10;;;;;;6293213;28;20121;-69
2022/10/31 00:28:11;;;;;;;4.25;2.60;;;20.50;64.10;;;;;;6294196;28;20029;-70
2022/10/31 00:31:13;;;;;;;3.97;2.90;;;20.50;64.00;;;;;;6293731;28;20487;-69
2022/10/31 00:34:13;;;;;;;3.25;2.55;;;20.50;64.10;;;;;;6294366;28;20036;-70
2022/10/31 00:37:14;;;;;;;4.85;2.35;;;20.50;64.10;;;;;;6293354;28;20037;-70
2022/10/31 00:40:15;;;;;;;3.40;2.42;;;20.50;64.00;;;;;;6293950;28;20138;-70
2022/10/31 00:43:15;;;;;;;4.07;2.72;;;20.50;64.00;;;;;;6293163;28;20025;-70
2022/10/31 00:46:16;;;;;;;4.30;3.08;;;20.50;64.00;;;;;;6293487;28;20066;-70
2022/10/31 00:49:16;;;;;;;3.42;2.20;;;20.50;64.10;;;;;;6293541;28;20230;-70
2022/10/31 00:52:17;;;;;;;3.88;2.72;;;20.50;64.10;;;;;;6293206;28;20052;-70
2022/10/31 00:55:18;;;;;;;4.72;2.80;;;20.50;64.00;;;;;;6292735;28;20058;-70
2022/10/31 00:58:18;;;;;;;3.75;2.55;;;20.50;64.00;;;;;;6292627;28;20032;-70
2022/10/31 01:01:19;;;;;;;3.83;2.80;;;20.50;64.00;;;;;;6292415;28;20069;-69
2022/10/31 01:04:19;;;;;;;4.38;2.90;;;20.50;64.00;;;;;;6293713;28;20013;-70
2022/10/31 01:07:20;;;;;;;3.38;2.72;;;20.50;64.10;;;;;;6292658;28;20391;-70
2022/10/31 01:10:21;;;;;;;3.70;2.65;;;20.50;64.10;;;;;;6292869;28;20105;-70
2022/10/31 01:13:21;;;;;;;4.28;3.00;;;20.50;64.00;;;;;;6293279;28;20032;-69
2022/10/31 01:16:24;;;;;;;3.42;2.78;;;20.50;64.00;;;;;;6292870;28;20066;-70
2022/10/31 01:19:25;;;;;;;3.35;2.63;;;20.50;64.00;;;;;;6292883;28;20445;-70
2022/10/31 01:22:25;;;;;;;3.85;2.50;;;20.50;64.00;;;;;;6292919;28;20035;-70
2022/10/31 01:25:26;;;;;;;4.20;2.80;;;20.50;64.10;;;;;;6291893;28;20107;-70
2022/10/31 01:28:27;;;;;;;4.25;2.83;;;20.50;64.00;;;;;;6292605;28;20472;-70
2022/10/31 01:31:30;;;;;;;3.10;2.45;;;20.50;64.00;;;;;;6292042;28;20025;-69
2022/10/31 01:34:31;;;;;;;5.43;3.45;;;20.50;64.00;;;;;;6292798;28;20099;-70
2022/10/31 01:37:31;;;;;;;3.65;2.40;;;20.50;64.00;;;;;;6292208;28;20041;-70
2022/10/31 01:40:32;;;;;;;4.00;3.13;;;20.50;64.10;;;;;;6292376;28;20104;-70
2022/10/31 01:43:55;;;;;;;4.32;2.85;;;20.50;64.00;;;;;;6292143;28;20036;-70
2022/10/31 01:47:07;;;;;;;4.78;3.00;;;20.50;64.00;;;;;;6291935;28;20012;-69
2022/10/31 01:50:30;;;;;;;3.60;2.75;;;20.50;64.10;;;;;;6292078;28;20101;-70
2022/10/31 01:53:31;;;;;;;4.50;3.13;;;20.50;64.00;;;;;;6292331;28;20037;-70
2022/10/31 01:56:36;;;;;;;6.45;2.92;;;20.50;64.10;;;;;;6291551;28;20356;-70
2022/10/31 01:59:42;;;;;;;4.00;3.10;;;20.50;64.10;;;;;;6292177;28;20020;-69
2022/10/31 02:02:45;;;;;;;4.05;2.63;;;20.50;64.00;;;;;;6291683;28;20541;-70
2022/10/31 02:05:46;;;;;;;4.60;3.22;;;20.50;64.00;;;;;;6292086;28;20024;-69
2022/10/31 02:08:46;;;;;;;7.22;3.42;;;20.50;64.00;;;;;;6292229;28;20028;-71
2022/10/31 02:11:47;;;;;;;3.30;2.72;;;20.50;64.00;;;;;;6290829;28;20078;-70
2022/10/31 02:14:48;;;;;;;3.63;2.88;;;20.50;64.00;;;;;;6291997;28;20071;-69
2022/10/31 02:17:49;;;;;;;3.33;2.78;;;20.50;64.00;;;;;;6291623;28;20025;-69
2022/10/31 02:21:19;;;;;;;4.90;3.28;;;20.50;64.00;;;;;;6291443;28;20541;-70
2022/10/31 02:24:57;;;;;;;7.47;3.38;;;20.50;64.00;;;;;;6291998;28;20040;-70
2022/10/31 02:28:27;;;;;;;4.20;2.78;;;20.50;64.00;;;;;;6291375;28;20153;-70
2022/10/31 02:31:50;;;;;;;3.78;3.03;;;20.50;64.00;;;;;;6291614;28;20025;-70
2022/10/31 02:35:17;;;;;;;4.07;2.90;;;20.50;64.10;;;;;;6291693;28;20403;-69
2022/10/31 02:38:47;;;;;;;4.00;2.78;;;20.50;64.10;;;;;;6254897;28;20073;-70
2022/10/31 02:42:15;;;;;;;4.15;3.10;;;20.50;64.00;;;;;;6271981;28;20029;-70
2022/10/31 02:45:25;;;;;;;4.22;2.83;;;20.50;64.00;;;;;;6291808;28;20391;-70
2022/10/31 02:48:31;;;;;;;4.50;3.03;;;20.50;64.00;;;;;;6291015;28;20377;-70
2022/10/31 02:51:32;;;;;;;6.32;2.85;;;20.50;64.00;;;;;;6291447;28;20084;-70
2022/10/31 02:54:32;;;;;;;3.50;2.63;;;20.50;64.00;;;;;;6291447;28;20479;-69
2022/10/31 02:57:35;;;;;;;3.67;2.78;;;20.50;64.00;;;;;;6290843;28;20037;-70
2022/10/31 03:00:47;;;;;;;4.38;3.22;;;20.50;64.00;;;;;;6292037;28;20032;-70
2022/10/31 03:04:18;;;;;;;4.80;3.15;;;20.50;64.00;;;;;;6290923;28;20024;-70
2022/10/31 03:07:42;;;;;;;5.60;3.35;;;20.50;64.10;;;;;;6290463;28;20031;-70
2022/10/31 03:11:01;;;;;;;3.70;2.70;;;20.50;64.00;;;;;;6291317;28;20119;-70
2022/10/31 03:14:13;;;;;;;4.85;3.00;;;20.50;64.00;;;;;;6291117;28;20098;-70
2022/10/31 03:17:28;;;;;;;4.20;3.00;;;20.50;64.00;;;;;;6291606;28;20068;-70
2022/10/31 03:20:40;;;;;;;4.72;3.28;;;20.50;64.00;;;;;;6291040;28;20032;-70
2022/10/31 03:23:45;;;;;;;5.00;3.15;;;20.50;64.00;;;;;;6293845;28;20031;-69
2022/10/31 03:26:51;;;;;;;3.85;2.88;;;20.50;64.80;;;;;;6295046;28;20407;-70
2022/10/31 03:29:55;;;;;;;4.93;3.03;;;20.50;64.00;;;;;;6270666;28;20036;-69
2022/10/31 03:32:58;;;;;;;3.45;2.97;;;20.50;64.00;;;;;;6278480;28;20375;-70
2022/10/31 03:36:01;;;;;;;4.32;3.10;;;20.50;64.00;;;;;;6295278;28;20025;-70
2022/10/31 03:39:05;;;;;;;4.00;3.05;;;20.50;64.00;;;;;;6295502;28;20024;-70
2022/10/31 03:42:10;;;;;;;3.70;2.58;;;20.50;64.00;;;;;;6295424;28;20098;-70
2022/10/31 03:45:19;;;;;;;3.83;2.92;;;20.50;64.00;;;;;;6270466;28;20033;-69
2022/10/31 03:48:21;;;;;;;3.17;2.75;;;20.50;64.00;;;;;;6269811;28;20033;-70
2022/10/31 03:51:48;;;;;;;4.03;2.90;;;20.50;64.00;;;;;;6270098;28;20122;-70
2022/10/31 03:54:55;;;;;;;5.07;2.70;;;20.50;64.00;;;;;;6291195;28;20403;-69
2022/10/31 03:58:09;;;;;;;3.55;2.75;;;20.50;64.10;;;;;;6293980;28;20031;-69
2022/10/31 04:01:15;;;;;;;4.43;3.25;;;20.50;64.00;;;;;;6294755;28;20035;-70
2022/10/31 04:04:17;;;;;;;4.72;2.70;;;20.50;64.00;;;;;;6294305;28;20020;-70
2022/10/31 04:07:20;;;;;;;4.13;2.83;;;20.50;64.00;;;;;;6293864;28;20502;-70
2022/10/31 04:10:23;;;;;;;4.18;2.90;;;20.50;64.00;;;;;;6294115;28;20364;-69
2022/10/31 04:13:28;;;;;;;3.88;2.72;;;20.50;64.00;;;;;;6294286;28;20036;-70
2022/10/31 04:16:29;;;;;;;4.10;2.90;;;20.50;64.00;;;;;;6294344;28;20399;-70
2022/10/31 04:19:32;;;;;;;6.30;2.80;;;20.50;64.00;;;;;;6294686;28;20063;-70
2022/10/31 04:22:32;;;;;;;3.95;2.90;;;20.50;64.00;;;;;;6294122;28;20024;-69
2022/10/31 04:25:33;;;;;;;4.38;2.67;;;20.50;64.00;;;;;;6293991;28;20274;-70
2022/10/31 04:28:33;;;;;;;4.85;2.90;;;20.50;64.00;;;;;;6293678;28;20030;-70
2022/10/31 04:31:34;;;;;;;3.80;2.45;;;20.50;64.00;;;;;;6294044;28;20021;-70
2022/10/31 04:34:34;;;;;;;5.07;3.00;;;20.50;64.00;;;;;;6293263;28;20503;-69
2022/10/31 04:37:35;;;;;;;4.32;2.75;;;20.50;64.00;;;;;;6293843;28;20032;-70
2022/10/31 04:40:36;;;;;;;3.38;2.40;;;20.50;64.00;;;;;;6293579;28;20070;-70
2022/10/31 04:43:36;;;;;;;4.20;2.75;;;20.50;64.00;;;;;;6293294;28;20020;-70
2022/10/31 04:46:37;;;;;;;4.88;3.00;;;20.50;64.00;;;;;;6293644;28;20477;-70
2022/10/31 04:49:37;;;;;;;3.05;2.40;;;20.50;64.00;;;;;;6292754;28;20029;-70
2022/10/31 04:52:45;;;;;;;3.40;2.67;;;20.50;64.00;;;;;;6293247;28;20096;-70
2022/10/31 04:55:46;;;;;;;4.07;2.72;;;20.50;64.00;;;;;;6292378;28;20042;-69
2022/10/31 04:58:46;;;;;;;4.00;2.60;;;20.50;64.80;;;;;;6293157;28;20548;-69
2022/10/31 05:01:47;;;;;;;3.80;2.67;;;20.50;64.00;;;;;;6292831;28;20313;-69
2022/10/31 05:04:48;;;;;;;4.88;3.00;;;20.50;63.90;;;;;;6293433;28;20047;-70
2022/10/31 05:07:49;;;;;;;3.25;2.22;;;20.50;64.00;;;;;;6292713;28;20103;-70
2022/10/31 05:10:50;;;;;;;3.13;2.42;;;20.50;64.00;;;;;;6292729;28;20044;-70
2022/10/31 05:13:50;;;;;;;4.70;2.55;;;20.50;64.00;;;;;;6292804;28;20446;-70
2022/10/31 05:16:51;;;;;;;3.60;2.40;;;20.50;64.00;;;;;;6292706;28;20025;-69
2022/10/31 05:19:52;;;;;;;3.28;2.40;;;20.50;64.00;;;;;;6292615;28;20095;-70
2022/10/31 05:22:54;;;;;;;4.05;2.67;;;20.50;63.90;;;;;;6292371;28;20039;-69
2022/10/31 05:25:55;;;;;;;2.88;2.20;;;20.50;64.00;;;;;;6292232;28;20031;-70
2022/10/31 05:28:55;;;;;;;3.83;2.65;;;20.50;63.90;;;;;;6292360;28;20025;-70
2022/10/31 05:31:56;;;;;;;3.53;2.63;;;20.50;63.90;;;;;;6292452;28;20107;-70
2022/10/31 05:34:56;;;;;;;3.00;2.20;;;20.50;64.00;;;;;;6292522;28;20028;-69
2022/10/31 05:37:58;;;;;;;4.03;2.78;;;20.50;64.00;;;;;;6291891;28;20372;-69
2022/10/31 05:41:00;;;;;;;4.25;2.78;;;20.50;63.90;;;;;;6292479;28;20032;-70
2022/10/31 05:44:01;;;;;;;4.18;2.58;;;20.50;63.90;;;;;;6292329;28;20029;-70
2022/10/31 05:47:02;;;;;;;3.55;2.17;;;20.50;64.00;;;;;;6291756;28;20283;-69
2022/10/31 05:50:03;;;;;;;3.58;2.50;;;20.50;63.90;;;;;;6291968;28;20565;-69
2022/10/31 05:53:05;;;;;;;3.55;2.10;;;20.50;63.90;;;;;;6292025;28;20475;-70
2022/10/31 05:56:06;;;;;;;3.38;2.35;;;20.50;63.90;;;;;;6292195;28;20387;-70
2022/10/31 05:59:06;;;;;;;3.88;2.50;;;20.50;64.00;;;;;;6291924;28;20029;-70
2022/10/31 06:02:07;;;;;;;3.28;2.25;;;20.50;64.00;;;;;;6280335;28;20484;-69
2022/10/31 06:05:08;;;;;;;2.97;2.17;;;20.50;64.00;;;;;;6272347;28;20031;-70
2022/10/31 06:08:08;;;;;;;3.42;2.20;;;20.50;64.00;;;;;;6291924;28;20506;-70
2022/10/31 06:11:09;;;;;;;3.25;2.35;;;20.50;64.00;;;;;;6291568;28;20033;-70
2022/10/31 06:14:09;;;;;;;2.60;2.05;;;20.50;64.00;;;;;;6292011;28;20059;-70
2022/10/31 06:17:10;;;;;;;3.30;2.10;;;20.50;64.10;;;;;;6291746;28;20419;-69
2022/10/31 06:20:11;;;;;;;2.45;2.00;;;20.50;64.00;;;;;;6291757;28;20059;-70
2022/10/31 06:23:11;;;;;;;2.65;2.05;;;20.50;64.00;;;;;;6291457;28;20039;-69
2022/10/31 06:26:12;;;;;;;3.55;2.40;;;20.50;64.00;;;;;;6291685;28;20033;-70
2022/10/31 06:29:13;;;;;;;2.63;2.20;;;20.50;64.00;;;;;;6291368;28;20059;-70
2022/10/31 06:32:14;;;;;;;2.90;2.25;;;20.50;64.00;;;;;;6291714;28;20040;-70
2022/10/31 06:35:15;;;;;;;3.08;2.00;;;20.50;64.00;;;;;;6291584;28;20039;-70
2022/10/31 06:38:15;;;;;;;4.10;2.60;;;20.50;64.10;;;;;;6292061;28;20511;-70
2022/10/31 06:41:16;;;;;;;2.53;2.00;;;20.50;64.00;;;;;;6291332;28;20046;-70
2022/10/31 06:44:17;;;;;;;2.42;1.90;;;20.50;64.00;;;;;;6291703;28;20112;-70
2022/10/31 06:47:17;;;;;;;2.53;1.85;;;20.50;64.00;;;;;;6291609;28;20020;-69
2022/10/31 06:50:18;;;;;;;2.67;2.00;;;20.50;64.00;;;;;;6291196;28;20056;-70
2022/10/31 06:53:18;;;;;;;3.45;2.20;;;20.50;64.00;;;;;;6291507;28;20430;-70
2022/10/31 06:56:19;;;;;;;3.88;2.72;;;20.50;64.00;;;;;;6291738;28;20098;-69
2022/10/31 06:59:19;;;;;;;2.67;2.20;;;20.50;64.00;;;;;;6293040;28;20043;-70
2022/10/31 07:02:20;;;;;;;2.72;2.08;;;20.50;64.00;;;;;;6293580;28;20073;-70
2022/10/31 07:05:21;;;;;;;3.28;2.20;;;20.50;64.00;;;;;;6278205;28;20033;-70
2022/10/31 07:08:22;;;;;;;3.35;2.60;;;20.50;64.00;;;;;;6294542;28;20499;-71
2022/10/31 07:11:22;;;;;;;5.78;2.40;;;20.50;64.10;;;;;;6292809;28;20438;-70
2022/10/31 07:14:23;;;;;;;3.42;2.35;;;20.50;64.00;;;;;;6297157;28;20021;-69
2022/10/31 07:17:24;;;;;;;2.70;2.20;;;20.50;64.00;;;;;;6296054;28;20110;-70
2022/10/31 07:20:25;;;;;;;4.20;2.17;;;20.50;64.00;;;;;;6297109;28;20183;-69
2022/10/31 07:23:25;;;;;;;2.65;2.05;;;20.50;64.00;;;;;;6296185;28;20024;-69
2022/10/31 07:26:27;;;;;;;2.90;2.00;;;20.50;64.00;;;;;;6296537;28;20317;-70
2022/10/31 07:29:28;;;;;;;2.60;2.00;;;20.50;64.00;;;;;;6296457;28;20025;-69
2022/10/31 07:32:40;;;;;;;3.30;2.20;;;20.50;64.00;;;;;;6296512;28;20135;-70
2022/10/31 07:35:41;;;;;;;2.85;2.33;;;20.50;64.00;;;;;;6296344;28;20546;-70
2022/10/31 07:38:41;;;;;;;2.97;1.92;;;20.50;64.00;;;;;;6296504;28;20069;-69
2022/10/31 07:41:42;;;;;;;2.35;2.00;;;20.50;64.00;;;;;;6289601;28;20633;-70
2022/10/31 07:44:42;;;;;;;2.45;1.90;;;20.50;64.00;;;;;;6296424;28;20211;-70
2022/10/31 07:47:51;;;;;;;3.00;2.10;;;20.50;64.00;;;;;;6285801;28;20064;-71
2022/10/31 07:50:51;;;;;;;2.80;2.28;;;20.50;64.00;;;;;;6295898;28;20048;-70
2022/10/31 07:53:52;;;;;;;2.35;1.90;;;20.50;63.90;;;;;;6296353;28;20443;-70
2022/10/31 07:56:53;;;;;;;2.80;1.90;;;20.50;63.90;;;;;;6295447;28;20525;-69
2022/10/31 07:59:53;;;;;;;2.88;1.95;;;20.50;63.90;;;;;;6282324;28;20448;-70
2022/10/31 08:03:14;;;;;;;3.30;2.30;;;20.50;63.90;;;;;;6291978;28;20025;-69
2022/10/31 08:06:15;;;;;;;1.73;1.40;;;20.50;63.90;;;;;;6296055;28;20430;-70
2022/10/31 08:09:15;;;;;;;2.65;2.10;;;20.50;63.90;;;;;;6295571;28;20021;-68
2022/10/31 08:12:16;;;;;;;3.08;2.10;;;20.50;63.90;;;;;;6285613;28;20143;-69
2022/10/31 08:15:16;;;;;;;2.75;1.58;;;20.50;64.00;;;;;;6276787;28;20025;-70
2022/10/31 08:18:17;;;;;;;14.23;4.18;;;20.50;63.90;;;;;;6288789;28;20036;-70
2022/10/31 08:21:18;;;;;;;4.68;1.90;;;20.50;63.60;;;;;;6295938;28;20361;-69
2022/10/31 08:24:18;;;;;;;2.92;2.00;;;20.50;64.00;;;;;;6295914;28;20025;-70
2022/10/31 08:27:19;;;;;;;3.67;2.05;;;20.50;63.90;;;;;;6296162;28;20028;-69
2022/10/31 08:30:21;;;;;;;3.00;1.95;;;20.50;64.00;;;;;;6296199;28;20021;-70
2022/10/31 08:33:22;;;;;;;2.88;2.20;;;20.50;63.90;;;;;;6295973;28;20013;-69
2022/10/31 08:36:22;;;;;;;3.70;2.25;;;20.50;63.90;;;;;;6295934;28;20028;-68
2022/10/31 08:39:23;;;;;;;4.47;2.45;;;20.50;63.90;;;;;;6295737;28;20028;-69
2022/10/31 08:42:23;;;;;;;2.67;1.90;;;20.50;63.90;;;;;;6297350;28;20038;-69
2022/10/31 08:45:24;;;;;;;5.82;2.50;;;20.50;63.90;;;;;;6296546;28;20055;-69
2022/10/31 08:48:25;;;;;;;4.20;2.20;;;20.50;63.90;;;;;;6295183;28;20475;-70
2022/10/31 08:51:26;;;;;;;2.75;2.22;;;20.50;63.90;;;;;;6297031;28;20060;-69
2022/10/31 08:54:26;;;;;;;2.60;2.08;;;20.50;64.00;;;;;;6294861;28;20047;-70
2022/10/31 08:57:27;;;;;;;4.18;2.15;;;20.50;63.90;;;;;;6294235;28;20059;-71
2022/10/31 09:00:27;;;;;;;7.07;2.10;;;20.50;63.90;;;;;;6275316;28;20096;-71
2022/10/31 09:03:30;;;;;;;6.38;2.33;;;20.60;64.00;;;;;;6282954;28;20021;-69
2022/10/31 09:06:31;;;;;;;2.42;2.00;;;20.60;63.90;;;;;;6294436;28;20027;-70
2022/10/31 09:09:31;;;;;;;3.80;2.05;;;20.60;63.90;;;;;;6294124;28;20028;-69
2022/10/31 09:12:32;;;;;;;3.55;1.83;;;20.50;63.90;;;;;;6295111;28;20043;-70
2022/10/31 09:15:35;;;;;;;7.10;2.20;;;20.60;64.10;;;;;;6294815;28;20024;-70
2022/10/31 09:18:35;;;;;;;6.65;2.20;;;20.60;64.00;;;;;;6293993;28;20132;-70
2022/10/31 09:21:36;;;;;;;8.65;2.28;;;20.50;63.90;;;;;;6290432;28;20028;-70
2022/10/31 09:24:36;;;;;;;4.55;2.10;;;20.50;63.90;;;;;;6290217;28;20036;-70
2022/10/31 09:27:37;;;;;;;13.93;2.42;;;20.50;63.80;;;;;;6281577;28;20356;-70
2022/10/31 09:30:38;;;;;;;10.20;2.50;;;20.60;64.80;;;;;;6293705;28;20024;-70
2022/10/31 09:33:39;;;;;;;6.88;2.70;;;20.60;63.70;;;;;;6285147;28;20017;-70
2022/10/31 09:36:40;;;;;;;5.88;3.40;;;20.50;63.80;;;;;;6293184;28;20086;-70
2022/10/31 09:39:40;;;;;;;4.18;1.90;;;20.50;63.80;;;;;;6294045;28;20054;-71
2022/10/31 09:42:46;;;;;;;4.25;2.20;;;20.50;64.00;;;;;;6282842;28;20123;-71
2022/10/31 09:46:03;;;;;;;4.05;2.50;;;20.60;64.00;;;;;;6283253;28;20028;-71
2022/10/31 09:49:09;;;;;;;3.65;2.25;;;20.50;63.90;;;;;;6293672;28;20020;-70
2022/10/31 09:52:18;;;;;;;4.53;2.13;;;20.50;63.90;;;;;;6284033;28;20454;-70
2022/10/31 09:55:26;;;;;;;7.20;2.50;;;20.50;63.90;;;;;;6293274;28;20044;-71
2022/10/31 09:58:29;;;;;;;3.90;2.15;;;20.50;63.90;;;;;;6291985;28;20126;-70
2022/10/31 10:01:38;;;;;;;3.97;2.40;;;20.50;63.90;;;;;;6293989;28;20446;-71
2022/10/31 10:04:56;;;;;;;4.05;2.30;;;20.50;63.90;;;;;;6294070;28;20028;-71
2022/10/31 10:08:08;;;;;;;4.10;2.33;;;20.50;63.90;;;;;;6292090;28;20033;-71
2022/10/31 10:11:22;;;;;;;3.47;2.20;;;20.50;63.90;;;;;;6284325;28;20498;-71
2022/10/31 10:14:30;;;;;;;3.67;2.25;;;20.50;63.90;;;;;;6284784;28;20029;-70
2022/10/31 10:17:45;;;;;;;3.35;2.38;;;20.50;63.90;;;;;;6293023;28;20447;-71
2022/10/31 10:21:05;;;;;;;3.00;2.08;;;20.50;64.00;;;;;;6292476;28;20028;-71
2022/10/31 10:24:21;;;;;;;5.03;2.20;;;20.50;63.90;;;;;;6292812;28;20154;-71
2022/10/31 10:27:38;;;;;;;5.22;2.10;;;20.50;63.90;;;;;;6292689;28;20025;-71
2022/10/31 10:30:47;;;;;;;3.67;2.15;;;20.50;63.90;;;;;;6292908;28;20115;-69
2022/10/31 10:34:01;;;;;;;3.90;2.38;;;20.50;63.90;;;;;;6288580;28;20044;-71
2022/10/31 10:37:20;;;;;;;4.38;2.20;;;20.50;63.90;;;;;;6275100;28;20111;-71
2022/10/31 10:40:24;;;;;;;4.70;2.15;;;20.50;63.90;;;;;;6285372;28;20051;-69
2022/10/31 10:43:37;;;;;;;4.55;2.50;;;20.50;63.90;;;;;;6297771;28;20104;-70
2022/10/31 10:50:18;;;;;;;5.32;2.35;;;20.50;63.90;;;;;;6297714;28;20048;-71
2022/10/31 10:54:05;;;;;;;4.35;2.55;;;20.50;64.00;;;;;;6298010;28;20020;-71
2022/10/31 10:57:31;;;;;;;2.80;1.98;;;20.50;63.90;;;;;;6294280;28;20403;-70
2022/10/31 11:00:41;;;;;;;4.22;2.58;;;20.50;63.90;;;;;;6277775;28;20439;-71
2022/10/31 11:03:42;;;;;;;3.05;2.28;;;20.50;64.00;;;;;;6297602;28;20025;-69
2022/10/31 11:06:43;;;;;;;4.35;2.15;;;20.50;64.00;;;;;;6295630;28;20109;-69
2022/10/31 11:09:43;;;;;;;3.42;2.20;;;20.50;63.90;;;;;;6297023;28;20021;-70
2022/10/31 11:13:06;;;;;;;5.50;2.63;;;20.50;63.90;;;;;;6297235;28;20043;-70
2022/10/31 11:16:10;;;;;;;4.20;2.63;;;20.50;63.90;;;;;;6296758;28;20052;-70
2022/10/31 11:19:19;;;;;;;2.90;2.20;;;20.50;63.90;;;;;;6297276;28;20028;-70
2022/10/31 11:22:20;;;;;;;4.00;2.03;;;20.50;63.90;;;;;;6272092;28;20023;-70
2022/10/31 11:25:25;;;;;;;3.08;2.13;;;20.50;63.90;;;;;;6291626;28;20029;-71
2022/10/31 11:28:26;;;;;;;;;;;20.50;63.90;;;;;;6298000;28;20021;-70
2022/10/31 11:31:27;;;;;;;3.55;2.20;;;20.50;63.90;;;;;;6296333;28;19958;-70
2022/10/31 11:34:35;;;;;;;2.97;2.08;;;20.50;63.80;;;;;;6294346;28;20043;-70
2022/10/31 11:37:42;;;;;;;2.33;1.83;;;20.60;64.00;;;;;;6294430;28;20131;-71
2022/10/31 11:40:53;;;;;;;3.22;2.00;;;20.60;64.00;;;;;;6294679;28;20036;-71
2022/10/31 11:44:01;;;;;;;3.53;2.22;;;20.50;63.90;;;;;;6294691;28;20036;-70
2022/10/31 11:47:04;;;;;;;2.88;2.08;;;20.60;64.10;;;;;;6295268;28;20024;-69
2022/10/31 11:50:11;;;;;;;3.75;2.38;;;20.50;64.00;;;;;;6290895;28;20076;-71
2022/10/31 11:53:18;;;;;;;7.63;1.95;;;20.50;64.00;;;;;;6285091;28;20047;-71
2022/10/31 11:56:19;;;;;;;5.43;2.08;;;20.50;63.90;;;;;;6285725;28;20059;-70
2022/10/31 11:59:30;;;;;;;5.28;2.00;;;20.50;64.00;;;;;;6295233;28;20063;-71
2022/10/31 12:02:31;;;;;;;4.28;2.28;;;20.50;64.00;;;;;;6294984;28;20499;-70
2022/10/31 12:05:32;;;;;;;3.65;2.28;;;20.50;64.00;;;;;;6294313;28;20025;-70
2022/10/31 12:08:38;;;;;;;3.03;1.90;;;20.50;64.00;;;;;;6294967;28;20387;-71
2022/10/31 12:11:45;;;;;;;3.03;2.08;;;20.50;63.90;;;;;;6283970;28;20063;-69
2022/10/31 12:15:16;;;;;;;4.18;2.03;;;20.50;64.00;;;;;;6294591;28;20479;-71
2022/10/31 12:18:20;;;;;;;5.00;2.25;;;20.50;64.00;;;;;;6283302;28;20058;-70
2022/10/31 12:21:52;;;;;;;2.45;2.00;;;20.50;64.00;;;;;;6294740;28;20032;-70
2022/10/31 12:25:16;;;;;;;3.10;2.20;;;20.50;64.00;;;;;;6292239;28;20047;-71
2022/10/31 12:28:44;;;;;;;3.72;2.17;;;20.50;64.00;;;;;;6294066;28;20424;-70
2022/10/31 12:32:00;;;;;;;2.72;2.00;;;20.50;64.00;;;;;;6294872;28;20024;-70
2022/10/31 12:35:28;;;;;;;3.92;2.17;;;20.50;64.00;;;;;;6294443;28;20543;-71
2022/10/31 12:39:16;;;;;;;4.97;2.30;;;20.50;64.00;;;;;;6280001;28;20045;-71
2022/10/31 12:42:51;;;;;;;2.53;1.98;;;20.50;64.00;;;;;;6273814;28;20044;-69
2022/10/31 12:45:57;;;;;;;3.65;1.70;;;20.50;64.00;;;;;;6293970;28;20459;-70
2022/10/31 12:49:12;;;;;;;4.95;2.10;;;20.50;64.00;;;;;;6282165;28;20083;-70
2022/10/31 12:52:50;;;;;;;3.90;2.10;;;20.50;64.00;;;;;;6281730;28;20063;-70
2022/10/31 12:56:28;;;;;;;6.38;2.20;;;20.50;64.00;;;;;;6271238;28;20387;-70
2022/10/31 12:59:39;;;;;;;4.00;2.10;;;20.50;64.10;;;;;;6279614;28;20105;-71
2022/10/31 13:03:02;;;;;;;5.15;2.33;;;20.50;64.00;;;;;;6293735;28;20379;-70
2022/10/31 13:06:12;;;;;;;2.73;1.93;;;20.50;64.00;;;;;;6293798;28;20056;-71
2022/10/31 13:09:20;;;;;;;2.50;1.80;;;20.50;64.10;;;;;;6293503;28;20032;-70
2022/10/31 13:12:22;;;;;;;2.58;1.73;;;20.50;64.00;;;;;;6293532;28;20025;-70
2022/10/31 13:15:31;;;;;;;2.65;2.03;;;20.50;64.00;;;;;;6293289;28;20471;-71
2022/10/31 13:18:51;;;;;;;3.25;1.75;;;20.50;64.00;;;;;;6292496;28;20043;-70
2022/10/31 13:22:07;;;;;;;3.10;2.00;;;20.50;64.00;;;;;;6292560;28;20021;-70
2022/10/31 13:25:08;;;;;;;2.38;2.00;;;20.50;64.00;;;;;;6292572;28;20021;-70
2022/10/31 13:28:43;;;;;;;2.03;1.67;;;20.50;64.10;;;;;;6293140;28;20028;-71
2022/10/31 13:31:44;;;;;;;2.50;2.08;;;20.50;64.10;;;;;;6292347;28;20031;-70
2022/10/31 13:34:53;;;;;;;2.15;1.70;;;20.50;64.10;;;;;;6291917;28;20487;-70
2022/10/31 13:38:04;;;;;;;2.70;1.67;;;20.50;64.10;;;;;;6291239;28;20071;-71
2022/10/31 13:41:31;;;;;;;2.38;1.80;;;20.50;64.10;;;;;;6293518;28;20021;-69
2022/10/31 13:44:37;;;;;;;2.67;1.92;;;20.50;64.00;;;;;;6288266;28;20043;-71
2022/10/31 13:47:38;;;;;;;2.72;1.80;;;20.50;64.00;;;;;;6292774;28;20028;-70
2022/10/31 13:50:39;;;;;;;3.67;1.70;;;20.50;64.10;;;;;;6293028;28;20080;-70
2022/10/31 13:54:05;;;;;;;2.47;1.80;;;20.50;64.10;;;;;;6292230;28;20020;-70
2022/10/31 13:57:19;;;;;;;3.72;1.80;;;20.50;64.10;;;;;;6291182;28;20390;-70
2022/10/31 14:00:20;;;;;;;2.80;1.75;;;20.50;64.10;;;;;;6270728;28;20025;-71
2022/10/31 14:03:21;;;;;;;2.80;1.83;;;20.50;64.10;;;;;;6292440;28;20506;-70
2022/10/31 14:06:33;;;;;;;1.83;1.60;;;20.50;64.10;;;;;;6291796;28;20109;-70
2022/10/31 14:09:39;;;;;;;2.40;1.90;;;20.50;64.10;;;;;;6292358;28;20029;-70
2022/10/31 14:12:46;;;;;;;2.25;1.65;;;20.50;64.10;;;;;;6292159;28;20263;-71
2022/10/31 14:16:00;;;;;;;2.17;1.65;;;20.50;64.10;;;;;;6293038;28;20028;-71
2022/10/31 14:19:19;;;;;;;2.72;1.80;;;20.50;64.10;;;;;;6292126;28;20060;-70
2022/10/31 14:22:23;;;;;;;2.38;1.50;;;20.50;64.10;;;;;;6292461;28;20032;-71
2022/10/31 14:25:36;;;;;;;2.13;1.52;;;20.50;64.10;;;;;;6291386;28;20036;-71
2022/10/31 14:28:37;;;;;;;2.25;1.63;;;20.50;64.10;;;;;;6292523;28;20047;-71
2022/10/31 14:31:52;;;;;;;1.85;1.48;;;20.50;64.10;;;;;;6292061;28;20021;-70
2022/10/31 14:34:59;;;;;;;2.40;1.27;;;20.50;64.10;;;;;;6291897;28;20104;-71
2022/10/31 14:38:08;;;;;;;2.95;1.90;;;20.50;64.20;;;;;;6286732;28;20470;-70
2022/10/31 14:41:27;;;;;;;2.35;1.65;;;20.50;64.10;;;;;;6292377;28;20033;-70
2022/10/31 14:45:00;;;;;;;1.75;1.50;;;20.50;64.10;;;;;;6290959;28;20094;-71
2022/10/31 14:48:01;;;;;;;2.17;1.73;;;20.50;64.10;;;;;;6291821;28;20040;-70
2022/10/31 14:51:10;;;;;;;2.80;1.95;;;20.50;64.10;;;;;;6290204;28;20052;-69
2022/10/31 14:54:40;;;;;;;2.83;2.00;;;20.50;64.10;;;;;;6279584;28;20032;-70
2022/10/31 14:57:51;;;;;;;3.25;2.00;;;20.50;64.10;;;;;;6291305;28;20074;-70
2022/10/31 15:00:55;;;;;;;4.47;1.92;;;20.50;64.10;;;;;;6292007;28;20455;-70
2022/10/31 15:04:22;;;;;;;3.67;2.33;;;20.50;64.10;;;;;;6291498;28;20035;-71
2022/10/31 15:07:26;;;;;;;5.05;2.45;;;20.50;64.10;;;;;;6290955;28;20423;-71
2022/10/31 15:10:29;;;;;;;4.10;2.80;;;20.50;64.10;;;;;;6291282;28;20028;-71
2022/10/31 15:13:30;;;;;;;3.97;2.55;;;20.50;64.10;;;;;;6291404;28;20021;-71
2022/10/31 15:16:34;;;;;;;4.38;2.78;;;20.50;64.10;;;;;;6291721;28;20176;-70
2022/10/31 15:19:36;;;;;;;6.03;3.63;;;20.50;64.10;;;;;;6293864;28;20041;-70
2022/10/31 15:22:37;;;;;;;6.05;4.28;;;20.50;64.10;;;;;;6296231;28;20036;-70
2022/10/31 15:25:37;;;;;;;6.45;4.05;;;20.50;64.10;;;;;;6295519;28;20031;-70
2022/10/31 15:28:38;;;;;;;20.75;3.53;;;20.50;64.10;;;;;;6279331;28;20032;-71
2022/10/31 15:31:48;;;;;;;12.55;3.72;;;20.50;64.00;;;;;;6293169;28;20082;-70
2022/10/31 15:34:51;;;;;;;7.28;4.05;;;20.50;64.00;;;;;;6295582;28;20021;-70
2022/10/31 15:37:52;;;;;;;16.05;6.82;;;20.50;64.00;;;;;;6302878;28;20047;-70
2022/10/31 15:41:39;;;;;;;27.15;10.73;;;20.50;63.90;;;;;;6297918;28;20025;-72
2022/10/31 15:44:41;;;;;;;7.75;4.43;;;20.50;63.80;;;;;;6278543;28;20036;-70
2022/10/31 15:47:56;;;;;;;29.90;9.88;;;20.50;63.90;;;;;;6294750;28;20025;-71
2022/10/31 15:50:57;;;;;;;27.42;15.50;;;20.50;63.90;;;;;;6294945;28;20578;-70
2022/10/31 15:53:59;;;;;;;29.10;14.15;;;20.50;63.70;;;;;;6294742;28;20086;-70
2022/10/31 15:57:00;;;;;;;34.30;17.05;;;20.50;63.60;;;;;;6293993;28;20452;-70
2022/10/31 16:00:01;;;;;;;33.47;17.25;;;20.50;63.60;;;;;;6283559;28;20016;-70
2022/10/31 16:03:13;;;;;;;29.25;15.85;;;20.50;63.70;;;;;;6294424;28;20082;-70
2022/10/31 16:06:20;;;;;;;30.98;17.55;;;20.50;63.70;;;;;;6294338;28;20024;-71
2022/10/31 16:09:23;;;;;;;14.82;9.85;;;20.50;63.70;;;;;;6295196;28;20020;-70
2022/10/31 16:12:34;;;;;;;32.38;17.65;;;20.60;63.90;;;;;;6294715;28;20495;-70